sensor_id;sensor_type;location;lat;lon;timestamp;pressure;altitude;pressure_sealevel;temperature;humidity
49841;BME280;35738;49.890;5.930;2023-06-22T00:00:02;96165.25;;;18.21;100.00
49841;BME280;35738;49.890;5.930;2023-06-22T00:02:35;96151.22;;;18.14;100.00
49841;BME280;35738;49.890;5.930;2023-06-22T00:05:02;96161.88;;;18.08;100.00
49841;BME280;35738;49.890;5.930;2023-06-22T00:07:29;96164.16;;;18.03;100.00
49841;BME280;35738;49.890;5.930;2023-06-22T00:09:56;96181.53;;;17.96;100.00
49841;BME280;35738;49.890;5.930;2023-06-22T00:12:23;96183.75;;;17.87;100.00
49841;BME280;35738;49.890;5.930;2023-06-22T00:14:50;96185.78;;;17.71;100.00
49841;BME280;35738;49.890;5.930;2023-06-22T00:17:18;96194.56;;;17.54;100.00
49841;BME280;35738;49.890;5.930;2023-06-22T00:19:47;96200.28;;;17.41;100.00
49841;BME280;35738;49.890;5.930;2023-06-22T00:22:14;96198.38;;;17.26;100.00
49841;BME280;35738;49.890;5.930;2023-06-22T00:24:41;96195.78;;;17.18;100.00
49841;BME280;35738;49.890;5.930;2023-06-22T00:27:10;96187.81;;;17.16;100.00
49841;BME280;35738;49.890;5.930;2023-06-22T00:29:37;96191.78;;;17.15;100.00
49841;BME280;35738;49.890;5.930;2023-06-22T00:32:04;96201.53;;;17.09;100.00
49841;BME280;35738;49.890;5.930;2023-06-22T00:34:31;96207.38;;;17.04;100.00
49841;BME280;35738;49.890;5.930;2023-06-22T00:36:58;96211.25;;;16.99;100.00
49841;BME280;35738;49.890;5.930;2023-06-22T00:39:26;96214.38;;;16.98;100.00
49841;BME280;35738;49.890;5.930;2023-06-22T00:41:53;96214.94;;;16.88;100.00
49841;BME280;35738;49.890;5.930;2023-06-22T00:44:19;96218.91;;;16.87;100.00
49841;BME280;35738;49.890;5.930;2023-06-22T00:46:47;96232.63;;;16.79;100.00
49841;BME280;35738;49.890;5.930;2023-06-22T00:49:14;96239.25;;;16.75;100.00
49841;BME280;35738;49.890;5.930;2023-06-22T00:51:41;96247.22;;;16.76;100.00
49841;BME280;35738;49.890;5.930;2023-06-22T00:54:12;96266.22;;;16.74;100.00
49841;BME280;35738;49.890;5.930;2023-06-22T00:56:41;96266.94;;;16.71;100.00
49841;BME280;35738;49.890;5.930;2023-06-22T00:59:09;96255.72;;;16.52;100.00
49841;BME280;35738;49.890;5.930;2023-06-22T01:01:38;96247.94;;;16.42;100.00
49841;BME280;35738;49.890;5.930;2023-06-22T01:04:07;96259.94;;;16.46;100.00
49841;BME280;35738;49.890;5.930;2023-06-22T01:06:38;96263.84;;;16.29;100.00
49841;BME280;35738;49.890;5.930;2023-06-22T01:09:19;96269.75;;;16.28;100.00
49841;BME280;35738;49.890;5.930;2023-06-22T01:11:53;96258.66;;;16.28;100.00
49841;BME280;35738;49.890;5.930;2023-06-22T01:14:32;96258.47;;;16.20;100.00
49841;BME280;35738;49.890;5.930;2023-06-22T01:17:02;96255.06;;;16.11;100.00
49841;BME280;35738;49.890;5.930;2023-06-22T01:19:37;96247.44;;;16.08;100.00
49841;BME280;35738;49.890;5.930;2023-06-22T01:22:08;96224.41;;;15.92;100.00
49841;BME280;35738;49.890;5.930;2023-06-22T01:30:03;96175.09;;;15.85;100.00
49841;BME280;35738;49.890;5.930;2023-06-22T01:32:34;96169.91;;;15.84;100.00
49841;BME280;35738;49.890;5.930;2023-06-22T01:35:04;96166.69;;;15.82;100.00
49841;BME280;35738;49.890;5.930;2023-06-22T01:37:33;96132.53;;;15.78;100.00
49841;BME280;35738;49.890;5.930;2023-06-22T01:40:01;96126.06;;;15.74;100.00
49841;BME280;35738;49.890;5.930;2023-06-22T01:42:30;96150.13;;;15.70;100.00
49841;BME280;35738;49.890;5.930;2023-06-22T01:44:58;96171.25;;;15.74;100.00
49841;BME280;35738;49.890;5.930;2023-06-22T01:47:25;96193.53;;;15.78;100.00
49841;BME280;35738;49.890;5.930;2023-06-22T01:49:51;96205.88;;;15.80;100.00
49841;BME280;35738;49.890;5.930;2023-06-22T01:52:19;96197.63;;;15.68;100.00
49841;BME280;35738;49.890;5.930;2023-06-22T01:54:47;96199.13;;;15.66;100.00
49841;BME280;35738;49.890;5.930;2023-06-22T01:57:14;96211.03;;;15.66;100.00
49841;BME280;35738;49.890;5.930;2023-06-22T02:00:09;96222.13;;;15.66;100.00
49841;BME280;35738;49.890;5.930;2023-06-22T02:02:52;96209.78;;;15.64;100.00
49841;BME280;35738;49.890;5.930;2023-06-22T02:05:21;96212.09;;;15.62;100.00
49841;BME280;35738;49.890;5.930;2023-06-22T02:08:02;96224.09;;;15.66;100.00
49841;BME280;35738;49.890;5.930;2023-06-22T02:10:29;96205.13;;;15.68;100.00
49841;BME280;35738;49.890;5.930;2023-06-22T02:12:58;96202.00;;;15.69;100.00
49841;BME280;35738;49.890;5.930;2023-06-22T02:15:26;96187.81;;;15.58;100.00
49841;BME280;35738;49.890;5.930;2023-06-22T02:17:53;96165.88;;;15.53;100.00
49841;BME280;35738;49.890;5.930;2023-06-22T02:20:20;96153.63;;;15.54;100.00
49841;BME280;35738;49.890;5.930;2023-06-22T02:22:47;96153.63;;;15.54;100.00
49841;BME280;35738;49.890;5.930;2023-06-22T02:25:14;96160.78;;;15.55;100.00
49841;BME280;35738;49.890;5.930;2023-06-22T02:27:41;96164.72;;;15.54;100.00
49841;BME280;35738;49.890;5.930;2023-06-22T02:30:08;96155.59;;;15.54;100.00
49841;BME280;35738;49.890;5.930;2023-06-22T02:32:36;96164.25;;;15.52;100.00
49841;BME280;35738;49.890;5.930;2023-06-22T02:35:03;96154.78;;;15.53;100.00
49841;BME280;35738;49.890;5.930;2023-06-22T02:37:33;96144.75;;;15.49;100.00
49841;BME280;35738;49.890;5.930;2023-06-22T02:39:59;96150.22;;;15.45;100.00
49841;BME280;35738;49.890;5.930;2023-06-22T02:42:26;96130.81;;;15.45;100.00
49841;BME280;35738;49.890;5.930;2023-06-22T02:44:52;96138.22;;;15.41;100.00
49841;BME280;35738;49.890;5.930;2023-06-22T02:47:19;96126.31;;;15.41;100.00
49841;BME280;35738;49.890;5.930;2023-06-22T02:49:45;96126.69;;;15.39;100.00
49841;BME280;35738;49.890;5.930;2023-06-22T02:52:13;96133.03;;;15.40;100.00
49841;BME280;35738;49.890;5.930;2023-06-22T02:54:39;96130.16;;;15.36;100.00
49841;BME280;35738;49.890;5.930;2023-06-22T02:57:06;96127.75;;;15.35;100.00
49841;BME280;35738;49.890;5.930;2023-06-22T02:59:32;96126.94;;;15.34;100.00
49841;BME280;35738;49.890;5.930;2023-06-22T03:02:00;96134.91;;;15.36;100.00
49841;BME280;35738;49.890;5.930;2023-06-22T03:04:27;96130.50;;;15.35;100.00
49841;BME280;35738;49.890;5.930;2023-06-22T03:06:53;96128.44;;;15.32;100.00
49841;BME280;35738;49.890;5.930;2023-06-22T03:09:20;96116.09;;;15.29;100.00
49841;BME280;35738;49.890;5.930;2023-06-22T03:11:49;96120.03;;;15.28;100.00
49841;BME280;35738;49.890;5.930;2023-06-22T03:14:16;96121.19;;;15.27;100.00
49841;BME280;35738;49.890;5.930;2023-06-22T03:16:42;96130.31;;;15.27;100.00
49841;BME280;35738;49.890;5.930;2023-06-22T03:19:09;96130.22;;;15.24;100.00
49841;BME280;35738;49.890;5.930;2023-06-22T03:21:37;96129.50;;;15.27;100.00
49841;BME280;35738;49.890;5.930;2023-06-22T03:24:05;96123.53;;;15.25;100.00
49841;BME280;35738;49.890;5.930;2023-06-22T03:26:34;96125.84;;;15.23;100.00
49841;BME280;35738;49.890;5.930;2023-06-22T03:29:01;96121.91;;;15.24;100.00
49841;BME280;35738;49.890;5.930;2023-06-22T03:31:27;96126.75;;;15.27;100.00
49841;BME280;35738;49.890;5.930;2023-06-22T03:33:54;96118.69;;;15.22;100.00
49841;BME280;35738;49.890;5.930;2023-06-22T03:36:21;96120.28;;;15.23;100.00
49841;BME280;35738;49.890;5.930;2023-06-22T03:38:49;96105.63;;;15.22;100.00
49841;BME280;35738;49.890;5.930;2023-06-22T03:41:16;96095.81;;;15.25;100.00
49841;BME280;35738;49.890;5.930;2023-06-22T03:43:43;96104.56;;;15.27;100.00
49841;BME280;35738;49.890;5.930;2023-06-22T03:46:09;96102.59;;;15.27;100.00
49841;BME280;35738;49.890;5.930;2023-06-22T03:48:37;96109.31;;;15.26;100.00
49841;BME280;35738;49.890;5.930;2023-06-22T03:51:04;96112.88;;;15.27;100.00
49841;BME280;35738;49.890;5.930;2023-06-22T03:53:31;96101.09;;;15.30;100.00
49841;BME280;35738;49.890;5.930;2023-06-22T03:55:57;96108.34;;;15.35;100.00
49841;BME280;35738;49.890;5.930;2023-06-22T03:58:24;96100.84;;;15.35;100.00
49841;BME280;35738;49.890;5.930;2023-06-22T04:00:52;96104.06;;;15.37;100.00
49841;BME280;35738;49.890;5.930;2023-06-22T04:03:19;96097.81;;;15.40;100.00
49841;BME280;35738;49.890;5.930;2023-06-22T04:05:47;96096.66;;;15.41;100.00
49841;BME280;35738;49.890;5.930;2023-06-22T04:08:15;96097.09;;;15.43;100.00
49841;BME280;35738;49.890;5.930;2023-06-22T04:10:41;96098.72;;;15.44;100.00
49841;BME280;35738;49.890;5.930;2023-06-22T04:13:08;96099.59;;;15.48;100.00
49841;BME280;35738;49.890;5.930;2023-06-22T04:15:35;96093.34;;;15.51;100.00
49841;BME280;35738;49.890;5.930;2023-06-22T04:18:02;96088.69;;;15.55;100.00
49841;BME280;35738;49.890;5.930;2023-06-22T04:20:31;96090.78;;;15.58;100.00
49841;BME280;35738;49.890;5.930;2023-06-22T04:23:01;96098.44;;;15.62;100.00
49841;BME280;35738;49.890;5.930;2023-06-22T04:25:31;96099.69;;;15.64;100.00
49841;BME280;35738;49.890;5.930;2023-06-22T04:27:58;96098.97;;;15.67;100.00
49841;BME280;35738;49.890;5.930;2023-06-22T04:30:25;96093.44;;;15.67;100.00
49841;BME280;35738;49.890;5.930;2023-06-22T04:32:52;96097.72;;;15.65;100.00
49841;BME280;35738;49.890;5.930;2023-06-22T04:35:25;96101.38;;;15.69;100.00
49841;BME280;35738;49.890;5.930;2023-06-22T04:37:53;96094.69;;;15.70;100.00
49841;BME280;35738;49.890;5.930;2023-06-22T04:40:24;96092.63;;;15.67;100.00
49841;BME280;35738;49.890;5.930;2023-06-22T04:42:52;96099.78;;;15.68;100.00
49841;BME280;35738;49.890;5.930;2023-06-22T04:45:20;96089.03;;;15.66;100.00
49841;BME280;35738;49.890;5.930;2023-06-22T04:47:48;96091.00;;;15.66;100.00
49841;BME280;35738;49.890;5.930;2023-06-22T04:50:18;96090.38;;;15.72;100.00
49841;BME280;35738;49.890;5.930;2023-06-22T04:52:47;96088.94;;;15.78;100.00
49841;BME280;35738;49.890;5.930;2023-06-22T04:55:15;96093.88;;;15.85;100.00
49841;BME280;35738;49.890;5.930;2023-06-22T04:57:45;96098.44;;;15.93;100.00
49841;BME280;35738;49.890;5.930;2023-06-22T05:00:17;96107.03;;;16.04;100.00
49841;BME280;35738;49.890;5.930;2023-06-22T05:02:45;96104.06;;;16.12;100.00
49841;BME280;35738;49.890;5.930;2023-06-22T05:05:17;96099.66;;;16.11;100.00
49841;BME280;35738;49.890;5.930;2023-06-22T05:07:50;96103.78;;;16.17;100.00
49841;BME280;35738;49.890;5.930;2023-06-22T05:10:19;96104.66;;;16.21;100.00
49841;BME280;35738;49.890;5.930;2023-06-22T05:12:49;96103.31;;;16.31;100.00
49841;BME280;35738;49.890;5.930;2023-06-22T05:15:17;96111.78;;;16.54;100.00
49841;BME280;35738;49.890;5.930;2023-06-22T05:17:48;96125.63;;;16.86;100.00
49841;BME280;35738;49.890;5.930;2023-06-22T05:20:15;96129.56;;;17.04;100.00
49841;BME280;35738;49.890;5.930;2023-06-22T05:22:44;96134.38;;;16.88;100.00
49841;BME280;35738;49.890;5.930;2023-06-22T05:25:14;96125.47;;;16.78;100.00
49841;BME280;35738;49.890;5.930;2023-06-22T05:27:41;96132.41;;;16.88;100.00
49841;BME280;35738;49.890;5.930;2023-06-22T05:30:10;96140.06;;;16.75;100.00
49841;BME280;35738;49.890;5.930;2023-06-22T05:32:38;96135.16;;;16.69;100.00
49841;BME280;35738;49.890;5.930;2023-06-22T05:35:05;96130.41;;;16.69;100.00
49841;BME280;35738;49.890;5.930;2023-06-22T05:37:33;96126.63;;;16.77;100.00
49841;BME280;35738;49.890;5.930;2023-06-22T05:40:00;96116.69;;;16.76;100.00
49841;BME280;35738;49.890;5.930;2023-06-22T05:42:28;96112.44;;;16.82;100.00
49841;BME280;35738;49.890;5.930;2023-06-22T05:44:55;96118.31;;;16.97;100.00
49841;BME280;35738;49.890;5.930;2023-06-22T05:47:22;96128.50;;;17.28;100.00
49841;BME280;35738;49.890;5.930;2023-06-22T05:49:52;96135.78;;;18.43;100.00
49841;BME280;35738;49.890;5.930;2023-06-22T05:52:19;96137.19;;;18.56;100.00
49841;BME280;35738;49.890;5.930;2023-06-22T05:54:48;96128.81;;;18.30;100.00
49841;BME280;35738;49.890;5.930;2023-06-22T05:57:15;96116.78;;;17.99;100.00
49841;BME280;35738;49.890;5.930;2023-06-22T05:59:42;96095.22;;;17.73;100.00
49841;BME280;35738;49.890;5.930;2023-06-22T06:02:09;96085.81;;;17.59;100.00
49841;BME280;35738;49.890;5.930;2023-06-22T06:04:36;96083.75;;;17.56;100.00
49841;BME280;35738;49.890;5.930;2023-06-22T06:07:14;96088.59;;;17.59;100.00
49841;BME280;35738;49.890;5.930;2023-06-22T06:09:42;96078.94;;;17.53;100.00
49841;BME280;35738;49.890;5.930;2023-06-22T06:12:09;96073.06;;;17.58;100.00
49841;BME280;35738;49.890;5.930;2023-06-22T06:14:39;96068.28;;;17.77;100.00
49841;BME280;35738;49.890;5.930;2023-06-22T06:17:07;96074.66;;;18.01;100.00
49841;BME280;35738;49.890;5.930;2023-06-22T06:19:35;96070.44;;;18.10;100.00
49841;BME280;35738;49.890;5.930;2023-06-22T06:22:05;96073.25;;;17.88;100.00
49841;BME280;35738;49.890;5.930;2023-06-22T06:24:33;96071.00;;;17.74;100.00
49841;BME280;35738;49.890;5.930;2023-06-22T06:27:03;96052.59;;;17.89;100.00
49841;BME280;35738;49.890;5.930;2023-06-22T06:29:33;96055.00;;;17.90;100.00
49841;BME280;35738;49.890;5.930;2023-06-22T06:32:00;96054.88;;;18.32;100.00
49841;BME280;35738;49.890;5.930;2023-06-22T06:34:29;96046.59;;;18.92;100.00
49841;BME280;35738;49.890;5.930;2023-06-22T06:37:08;96034.91;;;18.27;100.00
49841;BME280;35738;49.890;5.930;2023-06-22T06:39:39;96025.31;;;17.75;100.00
49841;BME280;35738;49.890;5.930;2023-06-22T06:42:18;96011.47;;;17.56;100.00
49841;BME280;35738;49.890;5.930;2023-06-22T06:44:57;95992.53;;;17.65;100.00
49841;BME280;35738;49.890;5.930;2023-06-22T06:47:27;95994.66;;;17.71;100.00
49841;BME280;35738;49.890;5.930;2023-06-22T06:49:57;95989.59;;;17.77;100.00
49841;BME280;35738;49.890;5.930;2023-06-22T06:52:27;95982.34;;;17.95;100.00
49841;BME280;35738;49.890;5.930;2023-06-22T06:55:01;95976.00;;;18.25;100.00
49841;BME280;35738;49.890;5.930;2023-06-22T06:57:33;95974.34;;;18.20;100.00
49841;BME280;35738;49.890;5.930;2023-06-22T07:00:06;95967.13;;;18.16;100.00
49841;BME280;35738;49.890;5.930;2023-06-22T07:02:43;95966.56;;;18.33;100.00
49841;BME280;35738;49.890;5.930;2023-06-22T07:05:19;95961.09;;;18.66;100.00
49841;BME280;35738;49.890;5.930;2023-06-22T07:07:51;95969.56;;;18.77;100.00
49841;BME280;35738;49.890;5.930;2023-06-22T07:10:22;95967.84;;;18.65;100.00
49841;BME280;35738;49.890;5.930;2023-06-22T07:12:51;95969.31;;;18.89;100.00
49841;BME280;35738;49.890;5.930;2023-06-22T07:15:23;95959.72;;;18.87;100.00
49841;BME280;35738;49.890;5.930;2023-06-22T07:17:50;95951.59;;;19.08;100.00
49841;BME280;35738;49.890;5.930;2023-06-22T07:20:17;95953.28;;;19.16;100.00
49841;BME280;35738;49.890;5.930;2023-06-22T07:22:46;95952.88;;;19.55;100.00
49841;BME280;35738;49.890;5.930;2023-06-22T07:25:22;95939.56;;;19.85;100.00
49841;BME280;35738;49.890;5.930;2023-06-22T07:28:01;95928.88;;;19.94;100.00
49841;BME280;35738;49.890;5.930;2023-06-22T07:30:34;95914.06;;;20.52;100.00
49841;BME280;35738;49.890;5.930;2023-06-22T07:33:02;95897.34;;;20.59;100.00
49841;BME280;35738;49.890;5.930;2023-06-22T07:35:36;95887.75;;;20.57;100.00
49841;BME280;35738;49.890;5.930;2023-06-22T07:38:03;95876.97;;;20.62;100.00
49841;BME280;35738;49.890;5.930;2023-06-22T07:40:32;95876.00;;;20.23;100.00
49841;BME280;35738;49.890;5.930;2023-06-22T07:43:06;95874.28;;;20.00;100.00
49841;BME280;35738;49.890;5.930;2023-06-22T07:45:33;95875.78;;;19.87;100.00
49841;BME280;35738;49.890;5.930;2023-06-22T07:48:06;95879.78;;;19.90;100.00
49841;BME280;35738;49.890;5.930;2023-06-22T07:50:33;95881.25;;;19.70;100.00
49841;BME280;35738;49.890;5.930;2023-06-22T07:53:06;95868.50;;;19.68;100.00
49841;BME280;35738;49.890;5.930;2023-06-22T07:55:34;95866.28;;;19.95;100.00
49841;BME280;35738;49.890;5.930;2023-06-22T07:58:01;95878.50;;;19.77;100.00
49841;BME280;35738;49.890;5.930;2023-06-22T08:00:30;95881.19;;;19.59;100.00
49841;BME280;35738;49.890;5.930;2023-06-22T08:03:04;95866.75;;;19.50;100.00
49841;BME280;35738;49.890;5.930;2023-06-22T08:05:38;95856.44;;;19.54;100.00
49841;BME280;35738;49.890;5.930;2023-06-22T08:08:08;95850.91;;;19.61;100.00
49841;BME280;35738;49.890;5.930;2023-06-22T08:10:38;95848.63;;;19.77;100.00
49841;BME280;35738;49.890;5.930;2023-06-22T08:13:09;95841.53;;;19.94;100.00
49841;BME280;35738;49.890;5.930;2023-06-22T08:15:37;95841.56;;;19.97;100.00
49841;BME280;35738;49.890;5.930;2023-06-22T08:18:15;95839.03;;;19.75;100.00
49841;BME280;35738;49.890;5.930;2023-06-22T08:20:48;95861.34;;;19.71;100.00
49841;BME280;35738;49.890;5.930;2023-06-22T08:23:21;95859.56;;;19.49;100.00
49841;BME280;35738;49.890;5.930;2023-06-22T08:25:58;95866.25;;;19.37;100.00
49841;BME280;35738;49.890;5.930;2023-06-22T08:28:29;95894.38;;;19.21;100.00
49841;BME280;35738;49.890;5.930;2023-06-22T08:30:57;95926.25;;;19.24;100.00
49841;BME280;35738;49.890;5.930;2023-06-22T08:33:24;95963.59;;;19.12;100.00
49841;BME280;35738;49.890;5.930;2023-06-22T08:35:58;95983.34;;;18.96;100.00
49841;BME280;35738;49.890;5.930;2023-06-22T08:38:31;95993.94;;;18.84;100.00
49841;BME280;35738;49.890;5.930;2023-06-22T08:40:58;96002.13;;;18.69;100.00
49841;BME280;35738;49.890;5.930;2023-06-22T08:43:29;96012.97;;;18.52;100.00
49841;BME280;35738;49.890;5.930;2023-06-22T08:45:56;96023.97;;;18.41;100.00
49841;BME280;35738;49.890;5.930;2023-06-22T08:48:30;96053.41;;;18.42;100.00
49841;BME280;35738;49.890;5.930;2023-06-22T08:50:57;96070.81;;;18.35;100.00
49841;BME280;35738;49.890;5.930;2023-06-22T08:53:24;96075.59;;;18.35;100.00
49841;BME280;35738;49.890;5.930;2023-06-22T08:55:52;96074.31;;;18.29;100.00
49841;BME280;35738;49.890;5.930;2023-06-22T08:58:20;96082.97;;;18.24;100.00
49841;BME280;35738;49.890;5.930;2023-06-22T09:00:49;96078.91;;;18.18;100.00
49841;BME280;35738;49.890;5.930;2023-06-22T09:03:16;96086.81;;;18.16;100.00
49841;BME280;35738;49.890;5.930;2023-06-22T09:05:43;96088.81;;;18.15;100.00
49841;BME280;35738;49.890;5.930;2023-06-22T09:08:11;96070.88;;;18.13;100.00
49841;BME280;35738;49.890;5.930;2023-06-22T09:10:38;96028.09;;;17.98;100.00
49841;BME280;35738;49.890;5.930;2023-06-22T09:13:05;95956.22;;;17.77;100.00
49841;BME280;35738;49.890;5.930;2023-06-22T09:15:35;95899.72;;;17.73;100.00
49841;BME280;35738;49.890;5.930;2023-06-22T09:18:03;95911.66;;;17.73;100.00
49841;BME280;35738;49.890;5.930;2023-06-22T09:20:30;95949.09;;;17.79;100.00
49841;BME280;35738;49.890;5.930;2023-06-22T09:22:58;95997.88;;;17.96;100.00
49841;BME280;35738;49.890;5.930;2023-06-22T09:25:25;95992.84;;;18.05;100.00
49841;BME280;35738;49.890;5.930;2023-06-22T09:27:52;95983.69;;;18.05;100.00
49841;BME280;35738;49.890;5.930;2023-06-22T09:30:20;95981.38;;;18.10;100.00
49841;BME280;35738;49.890;5.930;2023-06-22T09:32:47;95980.78;;;18.24;100.00
49841;BME280;35738;49.890;5.930;2023-06-22T09:35:14;95975.59;;;18.23;100.00
49841;BME280;35738;49.890;5.930;2023-06-22T09:37:41;95976.66;;;18.15;100.00
49841;BME280;35738;49.890;5.930;2023-06-22T09:40:08;95987.25;;;18.32;100.00
49841;BME280;35738;49.890;5.930;2023-06-22T09:42:41;95982.34;;;18.22;100.00
49841;BME280;35738;49.890;5.930;2023-06-22T09:45:08;95982.28;;;18.18;100.00
49841;BME280;35738;49.890;5.930;2023-06-22T09:47:36;95964.81;;;18.21;100.00
49841;BME280;35738;49.890;5.930;2023-06-22T09:50:03;95966.28;;;18.12;100.00
49841;BME280;35738;49.890;5.930;2023-06-22T09:52:30;95961.47;;;18.08;100.00
49841;BME280;35738;49.890;5.930;2023-06-22T09:55:12;95947.94;;;18.07;100.00
49841;BME280;35738;49.890;5.930;2023-06-22T09:57:42;95943.69;;;18.17;100.00
49841;BME280;35738;49.890;5.930;2023-06-22T10:00:09;95945.34;;;18.21;100.00
49841;BME280;35738;49.890;5.930;2023-06-22T10:02:41;95941.09;;;18.31;100.00
49841;BME280;35738;49.890;5.930;2023-06-22T10:05:09;95944.78;;;18.38;100.00
49841;BME280;35738;49.890;5.930;2023-06-22T10:07:37;95936.97;;;18.51;100.00
49841;BME280;35738;49.890;5.930;2023-06-22T10:10:10;95929.69;;;19.07;100.00
49841;BME280;35738;49.890;5.930;2023-06-22T10:12:43;95938.78;;;19.41;100.00
49841;BME280;35738;49.890;5.930;2023-06-22T10:15:10;95930.97;;;19.16;100.00
49841;BME280;35738;49.890;5.930;2023-06-22T10:17:38;95926.09;;;19.06;100.00
49841;BME280;35738;49.890;5.930;2023-06-22T10:20:07;95920.59;;;19.13;100.00
49841;BME280;35738;49.890;5.930;2023-06-22T10:22:40;95905.94;;;19.64;100.00
49841;BME280;35738;49.890;5.930;2023-06-22T10:25:07;95910.00;;;19.77;100.00
49841;BME280;35738;49.890;5.930;2023-06-22T10:27:34;95901.66;;;19.81;100.00
49841;BME280;35738;49.890;5.930;2023-06-22T10:30:02;95892.97;;;19.93;100.00
49841;BME280;35738;49.890;5.930;2023-06-22T10:32:29;95894.25;;;20.06;100.00
49841;BME280;35738;49.890;5.930;2023-06-22T10:34:56;95897.78;;;19.99;100.00
49841;BME280;35738;49.890;5.930;2023-06-22T10:37:28;95894.72;;;20.19;100.00
49841;BME280;35738;49.890;5.930;2023-06-22T10:39:54;95902.00;;;20.34;100.00
49841;BME280;35738;49.890;5.930;2023-06-22T10:42:24;95885.13;;;20.09;100.00
49841;BME280;35738;49.890;5.930;2023-06-22T10:44:52;95893.53;;;20.20;100.00
49841;BME280;35738;49.890;5.930;2023-06-22T10:47:19;95883.22;;;20.31;100.00
49841;BME280;35738;49.890;5.930;2023-06-22T10:49:46;95869.44;;;19.90;100.00
49841;BME280;35738;49.890;5.930;2023-06-22T10:52:14;95866.41;;;20.17;100.00
49841;BME280;35738;49.890;5.930;2023-06-22T10:54:42;95859.59;;;20.11;100.00
49841;BME280;35738;49.890;5.930;2023-06-22T10:57:13;95853.38;;;20.42;100.00
49841;BME280;35738;49.890;5.930;2023-06-22T10:59:40;95843.84;;;20.61;100.00
49841;BME280;35738;49.890;5.930;2023-06-22T11:02:10;95849.78;;;20.49;100.00
49841;BME280;35738;49.890;5.930;2023-06-22T11:04:42;95849.13;;;20.87;100.00
49841;BME280;35738;49.890;5.930;2023-06-22T11:07:10;95836.25;;;20.61;100.00
49841;BME280;35738;49.890;5.930;2023-06-22T11:09:37;95819.88;;;20.49;100.00
49841;BME280;35738;49.890;5.930;2023-06-22T11:12:08;95810.72;;;20.74;100.00
49841;BME280;35738;49.890;5.930;2023-06-22T11:14:36;95816.38;;;20.95;100.00
49841;BME280;35738;49.890;5.930;2023-06-22T11:17:04;95822.38;;;21.01;100.00
49841;BME280;35738;49.890;5.930;2023-06-22T11:19:32;95823.09;;;20.69;100.00
49841;BME280;35738;49.890;5.930;2023-06-22T11:21:59;95816.66;;;20.47;100.00
49841;BME280;35738;49.890;5.930;2023-06-22T11:24:26;95817.50;;;20.62;100.00
49841;BME280;35738;49.890;5.930;2023-06-22T11:27:00;95814.69;;;20.55;100.00
49841;BME280;35738;49.890;5.930;2023-06-22T11:29:30;95801.53;;;20.62;100.00
49841;BME280;35738;49.890;5.930;2023-06-22T11:32:05;95799.19;;;20.86;100.00
49841;BME280;35738;49.890;5.930;2023-06-22T11:34:32;95790.44;;;21.27;100.00
49841;BME280;35738;49.890;5.930;2023-06-22T11:37:02;95771.66;;;21.06;100.00
49841;BME280;35738;49.890;5.930;2023-06-22T11:39:30;95769.25;;;20.93;100.00
49841;BME280;35738;49.890;5.930;2023-06-22T11:42:07;95763.66;;;21.18;100.00
49841;BME280;35738;49.890;5.930;2023-06-22T11:44:35;95758.06;;;21.29;100.00
49841;BME280;35738;49.890;5.930;2023-06-22T11:47:02;95730.09;;;21.22;100.00
49841;BME280;35738;49.890;5.930;2023-06-22T11:49:43;95730.50;;;21.28;100.00
49841;BME280;35738;49.890;5.930;2023-06-22T11:52:12;95729.66;;;21.45;100.00
49841;BME280;35738;49.890;5.930;2023-06-22T11:54:39;95725.25;;;21.58;100.00
49841;BME280;35738;49.890;5.930;2023-06-22T11:57:09;95718.09;;;21.36;100.00
49841;BME280;35738;49.890;5.930;2023-06-22T11:59:39;95709.28;;;21.48;100.00
49841;BME280;35738;49.890;5.930;2023-06-22T12:02:06;95690.91;;;21.40;100.00
49841;BME280;35738;49.890;5.930;2023-06-22T12:04:34;95682.47;;;21.54;100.00
49841;BME280;35738;49.890;5.930;2023-06-22T12:07:03;95678.41;;;21.76;100.00
49841;BME280;35738;49.890;5.930;2023-06-22T12:09:30;95677.28;;;21.60;100.00
49841;BME280;35738;49.890;5.930;2023-06-22T12:12:06;95662.09;;;21.50;100.00
49841;BME280;35738;49.890;5.930;2023-06-22T12:14:37;95666.91;;;21.56;100.00
49841;BME280;35738;49.890;5.930;2023-06-22T12:17:08;95668.47;;;21.65;100.00
49841;BME280;35738;49.890;5.930;2023-06-22T12:19:35;95662.09;;;21.53;100.00
49841;BME280;35738;49.890;5.930;2023-06-22T12:22:03;95667.19;;;21.83;100.00
49841;BME280;35738;49.890;5.930;2023-06-22T12:24:30;95674.28;;;21.99;100.00
49841;BME280;35738;49.890;5.930;2023-06-22T12:26:57;95670.69;;;22.05;100.00
49841;BME280;35738;49.890;5.930;2023-06-22T12:29:24;95662.66;;;22.07;100.00
49841;BME280;35738;49.890;5.930;2023-06-22T12:31:51;95657.88;;;22.08;100.00
49841;BME280;35738;49.890;5.930;2023-06-22T12:34:18;95666.28;;;22.01;100.00
49841;BME280;35738;49.890;5.930;2023-06-22T12:36:45;95657.09;;;21.97;100.00
49841;BME280;35738;49.890;5.930;2023-06-22T12:39:14;95659.09;;;22.00;100.00
49841;BME280;35738;49.890;5.930;2023-06-22T12:41:41;95649.09;;;21.99;100.00
49841;BME280;35738;49.890;5.930;2023-06-22T12:44:08;95640.56;;;22.24;100.00
49841;BME280;35738;49.890;5.930;2023-06-22T12:46:36;95640.06;;;22.39;100.00
49841;BME280;35738;49.890;5.930;2023-06-22T12:49:07;95643.44;;;22.09;100.00
49841;BME280;35738;49.890;5.930;2023-06-22T12:51:40;95629.38;;;22.20;100.00
49841;BME280;35738;49.890;5.930;2023-06-22T12:54:12;95624.97;;;22.23;100.00
49841;BME280;35738;49.890;5.930;2023-06-22T12:56:40;95603.53;;;21.91;100.00
49841;BME280;35738;49.890;5.930;2023-06-22T12:59:07;95594.41;;;21.80;100.00
49841;BME280;35738;49.890;5.930;2023-06-22T13:01:35;95599.69;;;21.67;100.00
49841;BME280;35738;49.890;5.930;2023-06-22T13:04:04;95596.44;;;21.72;100.00